Pluto — D5FC4 — position and weather

sailwx.info

Track history (hours):
 
Tides and Currents Weather Stations Pressure Air Temp Water Temp Dewpoint Dewpoint Depression Visibility Wind Speed Wind Dir Waves Ship Positions

Pluto

Last reported at 2017-Sep-25 07:31 UTC. Time now 2017-Sep-25 07:58 UTC.
Position N 51°06' E 001°45'.

Length 175 m; draft 9.5 m.

Type: Cargo ship. MMSI: 636016416.

Date/timePositionNaut miles runAvg speedWind from/ knotsBaromVisibWave heightAir tempDewpointWater temp
2017-Sep-25 07:31N 51°06' E 001°45'612.1
2017-Sep-25 07:00N 51°01' E 001°38'612.7
2017-Sep-25 06:30N 50°57' E 001°31'713.0
2017-Sep-25 06:00N 50°51' E 001°26'713.5
2017-Sep-25 05:30N 50°45' E 001°21'612.9
2017-Sep-25 05:01N 50°40' E 001°15'713.3
2017-Sep-25 04:31N 50°35' E 001°08'1013.0
2017-Sep-25 03:47N 50°29' E 000°56'2112.9
2017-Sep-25 02:08N 50°22' E 000°25'213.2
2017-Sep-25 01:59N 50°21' E 000°22'613.4
2017-Sep-25 01:30N 50°20' E 000°12'713.9
2017-Sep-25 01:00N 50°18' E 000°02'714.4
2017-Sep-25 00:30N 50°16' W 000°09'714.9
2017-Sep-25 00:00N 50°14' W 000°20'815.4
2017-Sep-24 23:30N 50°12' W 000°32'8714.2
2017-Sep-24 17:21N 49°50' W 002°43'611.3
2017-Sep-24 16:51N 49°48' W 002°52'1011.2
2017-Sep-24 15:57N 49°44' W 003°06'511.3
2017-Sep-24 15:30N 49°41' W 003°13'6911.8
2017-Sep-24 09:43N 49°07' W 004°44'1513.0
2017-Sep-24 08:34N 48°59' W 005°03'313.4
2017-Sep-24 08:20N 48°58' W 005°07'413.9
2017-Sep-24 08:00N 48°55' W 005°13'714.2
2017-Sep-24 07:30N 48°52' W 005°23'714.1
2017-Sep-24 07:00N 48°49' W 005°32'  
2017-Sep-22 02:00N 38°20' W 009°45'612.0
2017-Sep-22 01:30N 38°14' W 009°43'611.5
2017-Sep-22 01:00N 38°09' W 009°42'611.4
2017-Sep-22 00:30N 38°03' W 009°40'611.5
2017-Sep-22 00:00N 37°57' W 009°38'611.5
2017-Sep-21 23:30N 37°52' W 009°37'611.7
2017-Sep-21 23:00N 37°46' W 009°35'611.4
2017-Sep-21 22:30N 37°41' W 009°33'611.5
2017-Sep-21 22:00N 37°35' W 009°32'611.7
2017-Sep-21 21:28N 37°29' W 009°30'3112.1
2017-Sep-21 18:53N 36°58' W 009°21'1512.3
2017-Sep-21 17:38N 36°46' W 009°10'213.1
2017-Sep-21 17:30N 36°44' W 009°08'613.0
2017-Sep-21 17:00N 36°42' W 009°01'613.0
2017-Sep-21 16:30N 36°40' W 008°53'612.6
2017-Sep-21 16:00N 36°38' W 008°46'612.7
2017-Sep-21 15:30N 36°37' W 008°38'612.7
2017-Sep-21 15:00N 36°35' W 008°31'813.1
2017-Sep-21 14:22N 36°32' W 008°21'513.2
2017-Sep-21 14:00N 36°31' W 008°15'613.3
2017-Sep-21 13:30N 36°28' W 008°07'713.4
2017-Sep-21 13:00N 36°26' W 007°59'11812.8
2017-Sep-21 03:47N 35°58' W 005°38'312.5
2017-Sep-21 03:30N 35°59' W 005°33'612.1
2017-Sep-21 03:00N 36°00' W 005°26'611.8
2017-Sep-21 02:30N 36°01' W 005°19'611.9
2017-Sep-21 02:00N 36°02' W 005°12'  
2017-Sep-18 21:22N 37°38' E 008°59'513.4
2017-Sep-18 20:59N 37°38' E 009°06'14613.1
2017-Sep-18 09:51N 37°09' E 012°06'513.0
2017-Sep-18 09:30N 37°08' E 012°11'1212.8
2017-Sep-18 08:35N 37°04' E 012°25'112.8
2017-Sep-18 08:30N 37°04' E 012°27'612.8
2017-Sep-18 08:00N 37°02' E 012°34'612.4
2017-Sep-18 07:30N 36°60' E 012°42'612.6
2017-Sep-18 07:00N 36°57' E 012°49'612.8
2017-Sep-18 06:30N 36°55' E 012°57'713.2
2017-Sep-18 05:57N 36°53' E 013°05'613.4
2017-Sep-18 05:30N 36°51' E 013°12'713.3
2017-Sep-18 04:57N 36°48' E 013°21'613.2
2017-Sep-18 04:30N 36°46' E 013°28'713.1
2017-Sep-18 04:00N 36°44' E 013°35'713.1
2017-Sep-18 03:30N 36°42' E 013°43'713.1
2017-Sep-18 03:00N 36°40' E 013°51'612.8
2017-Sep-18 02:30N 36°38' E 013°58'612.8
2017-Sep-18 02:00N 36°35' E 014°06'712.9
2017-Sep-18 01:30N 36°33' E 014°14'713.0
2017-Sep-18 01:00N 36°31' E 014°21'613.3
2017-Sep-18 00:30N 36°29' E 014°29'713.6
2017-Sep-18 00:00N 36°26' E 014°37'713.4
2017-Sep-17 23:30N 36°24' E 014°44'713.2
2017-Sep-17 23:00N 36°21' E 014°52'612.9
2017-Sep-17 22:30N 36°20' E 014°60'7213.6
2017-Sep-17 17:10N 36°20' E 016°30'313.7
2017-Sep-17 16:58N 36°20' E 016°33'813.5
2017-Sep-17 16:21N 36°20' E 016°44'2213.6
2017-Sep-17 14:45N 36°20' E 017°11'413.7
2017-Sep-17 14:28N 36°20' E 017°15'613.7
2017-Sep-17 14:00N 36°20' E 017°23'713.8
2017-Sep-17 13:30N 36°21' E 017°32'713.6
2017-Sep-17 13:00N 36°20' E 017°40'713.4
2017-Sep-17 12:30N 36°20' E 017°49'713.3
2017-Sep-17 12:00N 36°20' E 017°57'713.2
2017-Sep-17 11:30N 36°20' E 018°05'612.9
2017-Sep-17 11:00N 36°20' E 018°13'713.2
2017-Sep-17 10:30N 36°20' E 018°21'713.2
2017-Sep-17 10:00N 36°20' E 018°29'913.2
2017-Sep-17 09:20N 36°20' E 018°40'413.3
2017-Sep-17 09:00N 36°20' E 018°46'713.5
2017-Sep-17 08:30N 36°20' E 018°54'713.5
2017-Sep-17 08:00N 36°20' E 019°03'713.5
2017-Sep-17 07:30N 36°20' E 019°11'713.6
2017-Sep-17 07:00N 36°20' E 019°19'713.7
2017-Sep-17 06:30N 36°20' E 019°28'713.8
2017-Sep-17 06:00N 36°20' E 019°37'713.7
2017-Sep-17 05:30N 36°20' E 019°45'713.7
2017-Sep-17 05:00N 36°20' E 019°54'713.6
2017-Sep-17 04:30N 36°21' E 020°02'713.6
2017-Sep-17 04:00N 36°21' E 020°10'713.6
2017-Sep-17 03:30N 36°21' E 020°19'713.7
2017-Sep-17 03:00N 36°20' E 020°27'713.6
2017-Sep-17 02:30N 36°20' E 020°36'713.6
2017-Sep-17 02:00N 36°20' E 020°44'713.6
2017-Sep-17 01:30N 36°21' E 020°53'713.4
2017-Sep-17 01:00N 36°21' E 021°01'813.3
2017-Sep-17 00:23N 36°21' E 021°11'513.3
2017-Sep-17 00:00N 36°20' E 021°17'613.0
2017-Sep-16 23:30N 36°20' E 021°25'612.7
2017-Sep-16 23:00N 36°20' E 021°33'612.7
2017-Sep-16 22:30N 36°20' E 021°41'612.8
2017-Sep-16 22:00N 36°21' E 021°49'612.8
2017-Sep-16 21:30N 36°21' E 021°57'6812.9
2017-Sep-16 16:16N 36°29' E 023°21'312.8
2017-Sep-16 16:00N 36°30' E 023°24'613.0
2017-Sep-16 15:30N 36°34' E 023°31'713.2
2017-Sep-16 15:00N 36°37' E 023°38'713.5
2017-Sep-16 14:30N 36°41' E 023°45'713.6
2017-Sep-16 14:00N 36°44' E 023°52'5414.0
2017-Sep-16 10:10N 37°10' E 024°51'214.2
2017-Sep-16 10:00N 37°11' E 024°54'714.3
2017-Sep-16 09:30N 37°14' E 025°02'713.9
2017-Sep-16 09:00N 37°16' E 025°10'713.8
2017-Sep-16 08:31N 37°18' E 025°19'713.8
2017-Sep-16 08:00N 37°19' E 025°27'713.9
2017-Sep-16 07:30N 37°20' E 025°36'713.8
2017-Sep-16 07:00N 37°21' E 025°45'713.8
2017-Sep-16 06:30N 37°22' E 025°53'  
Track history (hours):
 
Tides and Currents Weather Stations Pressure Air Temp Water Temp Dewpoint Dewpoint Depression Visibility Wind Speed Wind Dir Waves Ship Positions

Pluto

Last reported at 2017-Sep-25 07:31 UTC. Time now 2017-Sep-25 07:58 UTC.
Position N 51°06' E 001°45'.

Length 175 m; draft 9.5 m.

Type: Cargo ship. MMSI: 636016416.

Date/timePositionNaut miles runAvg speedWind from/ knotsBaromVisibWave heightAir tempDewpointWater temp
2017-Sep-25 07:31N 51°06' E 001°45'612.1
2017-Sep-25 07:00N 51°01' E 001°38'612.7
2017-Sep-25 06:30N 50°57' E 001°31'713.0
2017-Sep-25 06:00N 50°51' E 001°26'713.5
2017-Sep-25 05:30N 50°45' E 001°21'612.9
2017-Sep-25 05:01N 50°40' E 001°15'713.3
2017-Sep-25 04:31N 50°35' E 001°08'1013.0
2017-Sep-25 03:47N 50°29' E 000°56'2112.9
2017-Sep-25 02:08N 50°22' E 000°25'213.2
2017-Sep-25 01:59N 50°21' E 000°22'613.4
2017-Sep-25 01:30N 50°20' E 000°12'713.9
2017-Sep-25 01:00N 50°18' E 000°02'714.4
2017-Sep-25 00:30N 50°16' W 000°09'714.9
2017-Sep-25 00:00N 50°14' W 000°20'815.4
2017-Sep-24 23:30N 50°12' W 000°32'8714.2
2017-Sep-24 17:21N 49°50' W 002°43'611.3
2017-Sep-24 16:51N 49°48' W 002°52'1011.2
2017-Sep-24 15:57N 49°44' W 003°06'511.3
2017-Sep-24 15:30N 49°41' W 003°13'6911.8
2017-Sep-24 09:43N 49°07' W 004°44'1513.0
2017-Sep-24 08:34N 48°59' W 005°03'313.4
2017-Sep-24 08:20N 48°58' W 005°07'413.9
2017-Sep-24 08:00N 48°55' W 005°13'714.2
2017-Sep-24 07:30N 48°52' W 005°23'714.1
2017-Sep-24 07:00N 48°49' W 005°32'  
2017-Sep-22 02:00N 38°20' W 009°45'612.0
2017-Sep-22 01:30N 38°14' W 009°43'611.5
2017-Sep-22 01:00N 38°09' W 009°42'611.4
2017-Sep-22 00:30N 38°03' W 009°40'611.5
2017-Sep-22 00:00N 37°57' W 009°38'611.5
2017-Sep-21 23:30N 37°52' W 009°37'611.7
2017-Sep-21 23:00N 37°46' W 009°35'611.4
2017-Sep-21 22:30N 37°41' W 009°33'611.5
2017-Sep-21 22:00N 37°35' W 009°32'611.7
2017-Sep-21 21:28N 37°29' W 009°30'3112.1
2017-Sep-21 18:53N 36°58' W 009°21'1512.3
2017-Sep-21 17:38N 36°46' W 009°10'213.1
2017-Sep-21 17:30N 36°44' W 009°08'613.0
2017-Sep-21 17:00N 36°42' W 009°01'613.0
2017-Sep-21 16:30N 36°40' W 008°53'612.6
2017-Sep-21 16:00N 36°38' W 008°46'612.7
2017-Sep-21 15:30N 36°37' W 008°38'612.7
2017-Sep-21 15:00N 36°35' W 008°31'813.1
2017-Sep-21 14:22N 36°32' W 008°21'513.2
2017-Sep-21 14:00N 36°31' W 008°15'613.3
2017-Sep-21 13:30N 36°28' W 008°07'713.4
2017-Sep-21 13:00N 36°26' W 007°59'11812.8
2017-Sep-21 03:47N 35°58' W 005°38'312.5
2017-Sep-21 03:30N 35°59' W 005°33'612.1
2017-Sep-21 03:00N 36°00' W 005°26'611.8
2017-Sep-21 02:30N 36°01' W 005°19'611.9
2017-Sep-21 02:00N 36°02' W 005°12'  
2017-Sep-18 21:22N 37°38' E 008°59'513.4
2017-Sep-18 20:59N 37°38' E 009°06'14613.1
2017-Sep-18 09:51N 37°09' E 012°06'513.0
2017-Sep-18 09:30N 37°08' E 012°11'1212.8
2017-Sep-18 08:35N 37°04' E 012°25'112.8
2017-Sep-18 08:30N 37°04' E 012°27'612.8
2017-Sep-18 08:00N 37°02' E 012°34'612.4
2017-Sep-18 07:30N 36°60' E 012°42'612.6
2017-Sep-18 07:00N 36°57' E 012°49'612.8
2017-Sep-18 06:30N 36°55' E 012°57'713.2
2017-Sep-18 05:57N 36°53' E 013°05'613.4
2017-Sep-18 05:30N 36°51' E 013°12'713.3
2017-Sep-18 04:57N 36°48' E 013°21'613.2
2017-Sep-18 04:30N 36°46' E 013°28'713.1
2017-Sep-18 04:00N 36°44' E 013°35'713.1
2017-Sep-18 03:30N 36°42' E 013°43'713.1
2017-Sep-18 03:00N 36°40' E 013°51'612.8
2017-Sep-18 02:30N 36°38' E 013°58'612.8
2017-Sep-18 02:00N 36°35' E 014°06'712.9
2017-Sep-18 01:30N 36°33' E 014°14'713.0
2017-Sep-18 01:00N 36°31' E 014°21'613.3
2017-Sep-18 00:30N 36°29' E 014°29'713.6
2017-Sep-18 00:00N 36°26' E 014°37'713.4
2017-Sep-17 23:30N 36°24' E 014°44'713.2
2017-Sep-17 23:00N 36°21' E 014°52'612.9
2017-Sep-17 22:30N 36°20' E 014°60'7213.6
2017-Sep-17 17:10N 36°20' E 016°30'313.7
2017-Sep-17 16:58N 36°20' E 016°33'813.5
2017-Sep-17 16:21N 36°20' E 016°44'2213.6
2017-Sep-17 14:45N 36°20' E 017°11'413.7
2017-Sep-17 14:28N 36°20' E 017°15'613.7
2017-Sep-17 14:00N 36°20' E 017°23'713.8
2017-Sep-17 13:30N 36°21' E 017°32'713.6
2017-Sep-17 13:00N 36°20' E 017°40'713.4
2017-Sep-17 12:30N 36°20' E 017°49'713.3
2017-Sep-17 12:00N 36°20' E 017°57'713.2
2017-Sep-17 11:30N 36°20' E 018°05'612.9
2017-Sep-17 11:00N 36°20' E 018°13'713.2
2017-Sep-17 10:30N 36°20' E 018°21'713.2
2017-Sep-17 10:00N 36°20' E 018°29'913.2
2017-Sep-17 09:20N 36°20' E 018°40'413.3
2017-Sep-17 09:00N 36°20' E 018°46'713.5
2017-Sep-17 08:30N 36°20' E 018°54'713.5
2017-Sep-17 08:00N 36°20' E 019°03'713.5
2017-Sep-17 07:30N 36°20' E 019°11'713.6
2017-Sep-17 07:00N 36°20' E 019°19'713.7
2017-Sep-17 06:30N 36°20' E 019°28'713.8
2017-Sep-17 06:00N 36°20' E 019°37'713.7
2017-Sep-17 05:30N 36°20' E 019°45'713.7
2017-Sep-17 05:00N 36°20' E 019°54'713.6
2017-Sep-17 04:30N 36°21' E 020°02'713.6
2017-Sep-17 04:00N 36°21' E 020°10'713.6
2017-Sep-17 03:30N 36°21' E 020°19'713.7
2017-Sep-17 03:00N 36°20' E 020°27'713.6
2017-Sep-17 02:30N 36°20' E 020°36'713.6
2017-Sep-17 02:00N 36°20' E 020°44'713.6
2017-Sep-17 01:30N 36°21' E 020°53'713.4
2017-Sep-17 01:00N 36°21' E 021°01'813.3
2017-Sep-17 00:23N 36°21' E 021°11'513.3
2017-Sep-17 00:00N 36°20' E 021°17'613.0
2017-Sep-16 23:30N 36°20' E 021°25'612.7
2017-Sep-16 23:00N 36°20' E 021°33'612.7
2017-Sep-16 22:30N 36°20' E 021°41'612.8
2017-Sep-16 22:00N 36°21' E 021°49'612.8
2017-Sep-16 21:30N 36°21' E 021°57'6812.9
2017-Sep-16 16:16N 36°29' E 023°21'312.8
2017-Sep-16 16:00N 36°30' E 023°24'613.0
2017-Sep-16 15:30N 36°34' E 023°31'713.2
2017-Sep-16 15:00N 36°37' E 023°38'713.5
2017-Sep-16 14:30N 36°41' E 023°45'713.6
2017-Sep-16 14:00N 36°44' E 023°52'5414.0
2017-Sep-16 10:10N 37°10' E 024°51'214.2
2017-Sep-16 10:00N 37°11' E 024°54'714.3
2017-Sep-16 09:30N 37°14' E 025°02'713.9
2017-Sep-16 09:00N 37°16' E 025°10'713.8
2017-Sep-16 08:31N 37°18' E 025°19'713.8
2017-Sep-16 08:00N 37°19' E 025°27'713.9
2017-Sep-16 07:30N 37°20' E 025°36'713.8
2017-Sep-16 07:00N 37°21' E 025°45'713.8
2017-Sep-16 06:30N 37°22' E 025°53'  

Dump ship's entire track history